Time;durP1;ratioP1;P1;durP2;ratioP2;P2;SDS_P1;SDS_P2;PMS_P1;PMS_P2;Temp;Humidity;BMP_temperature;BMP_pressure;BME280_temperature;BME280_humidity;BME280_pressure;Samples;Min_cycle;Max_cycle;Signal;HPM_P1;HPM_P2
2020/12/14 00:00:28;;;;;;;;;;;15.20;87.50;;;;;;4246871;27;19934;-39
2020/12/14 00:02:51;;;;;;;;;;;15.20;87.40;;;;;;4246905;27;19927;-41
2020/12/14 00:05:13;;;;;;;;;;;15.10;87.30;;;;;;4247146;27;19934;-39
2020/12/14 00:07:34;;;;;;;;;;;15.10;87.60;;;;;;4247323;27;20385;-40
2020/12/14 00:09:55;;;;;;;;;;;15.10;87.60;;;;;;4247578;27;20393;-40
2020/12/14 00:12:15;;;;;;;;;;;15.10;87.60;;;;;;4247275;27;19927;-40
2020/12/14 00:14:36;;;;;;;;;;;15.10;87.60;;;;;;4247492;27;19927;-40
2020/12/14 00:16:57;;;;;;;;;;;15.10;87.60;;;;;;4247093;27;19966;-42
2020/12/14 00:19:18;;;;;;;;;;;15.10;87.80;;;;;;4246910;27;19972;-40
2020/12/14 00:21:39;;;;;;;;;;;15.10;87.80;;;;;;4246756;27;19923;-39
2020/12/14 00:24:00;;;;;;;;;;;15.00;87.70;;;;;;4229719;28;19951;-40
2020/12/14 00:26:21;;;;;;;;;;;15.00;87.80;;;;;;4229901;28;19931;-39
2020/12/14 00:28:41;;;;;;;;;;;15.00;87.70;;;;;;4230353;28;20496;-39
2020/12/14 00:31:02;;;;;;;;;;;15.00;87.90;;;;;;4229726;28;19924;-39
2020/12/14 00:33:23;;;;;;;;;;;15.00;88.00;;;;;;4229791;28;20275;-39
2020/12/14 00:35:45;;;;;;;;;;;15.00;88.00;;;;;;4229702;28;19935;-39
2020/12/14 00:38:05;;;;;;;;;;;15.00;88.10;;;;;;4241808;27;19928;-39
2020/12/14 00:40:29;;;;;;;;;;;15.00;88.00;;;;;;4246424;27;20387;-39
2020/12/14 00:42:52;;;;;;;;;;;15.00;88.30;;;;;;4246123;27;20705;-39
2020/12/14 00:45:13;;;;;;;;;;;14.90;88.10;;;;;;4246577;27;20053;-39
2020/12/14 00:47:34;;;;;;;;;;;15.00;88.10;;;;;;4246821;27;20023;-39
2020/12/14 00:49:54;;;;;;;;;;;14.90;88.00;;;;;;4246692;27;19995;-39
2020/12/14 00:52:16;;;;;;;;;;;15.00;88.10;;;;;;4236109;27;20301;-39
2020/12/14 00:54:37;;;;;;;;;;;14.90;88.20;;;;;;4246649;27;19933;-39
2020/12/14 00:56:58;;;;;;;;;;;14.90;88.20;;;;;;4246677;27;19923;-40
2020/12/14 00:59:18;;;;;;;;;;;14.90;88.30;;;;;;4246560;27;19953;-39
2020/12/14 01:01:39;;;;;;;;;;;14.90;88.30;;;;;;4246488;28;19988;-39
2020/12/14 01:04:00;;;;;;;;;;;14.90;88.40;;;;;;4246439;28;19955;-39
2020/12/14 01:06:21;;;;;;;;;;;14.90;88.40;;;;;;4246459;28;19967;-39
2020/12/14 01:08:42;;;;;;;;;;;14.90;88.50;;;;;;4229490;28;19928;-39
2020/12/14 01:11:03;;;;;;;;;;;14.80;88.40;;;;;;4229618;28;20000;-40
2020/12/14 01:13:24;;;;;;;;;;;14.80;88.40;;;;;;4243734;28;19924;-39
2020/12/14 01:15:45;;;;;;;;;;;14.80;88.40;;;;;;4246803;28;19933;-39
2020/12/14 01:18:05;;;;;;;;;;;14.80;88.40;;;;;;4246778;28;20026;-39
2020/12/14 01:20:26;;;;;;;;;;;14.80;88.50;;;;;;4246479;28;20019;-39
2020/12/14 01:22:46;;;;;;;;;;;14.80;88.50;;;;;;4246268;28;20438;-39
2020/12/14 01:25:08;;;;;;;;;;;14.80;88.50;;;;;;4246803;28;20377;-39
2020/12/14 01:27:31;;;;;;;;;;;14.80;88.60;;;;;;4246209;28;19934;-39
2020/12/14 01:29:51;;;;;;;;;;;14.80;88.60;;;;;;4246283;27;19927;-39
2020/12/14 01:32:12;;;;;;;;;;;14.80;88.60;;;;;;4246755;28;19976;-39
2020/12/14 01:34:33;;;;;;;;;;;14.70;88.60;;;;;;4246443;28;19927;-39
2020/12/14 01:36:54;;;;;;;;;;;14.70;88.70;;;;;;4246073;28;20352;-39
2020/12/14 01:39:15;;;;;;;;;;;14.80;88.70;;;;;;4246340;28;20385;-39
2020/12/14 01:41:37;;;;;;;;;;;14.70;88.70;;;;;;4246042;27;19927;-39
2020/12/14 01:43:58;;;;;;;;;;;14.70;88.70;;;;;;4246126;28;20458;-39
2020/12/14 01:46:25;;;;;;;;;;;14.70;88.70;;;;;;4244755;28;20409;-39
2020/12/14 01:48:46;;;;;;;;;;;14.80;88.80;;;;;;4246710;28;20274;-39
2020/12/14 01:51:08;;;;;;;;;;;14.70;88.90;;;;;;4248342;27;19923;-39
2020/12/14 01:53:29;;;;;;;;;;;14.70;88.90;;;;;;4249812;27;19923;-39
2020/12/14 01:55:52;;;;;;;;;;;14.70;89.00;;;;;;4249264;27;20011;-40
2020/12/14 01:58:14;;;;;;;;;;;14.70;89.00;;;;;;4249378;27;20675;-39
2020/12/14 02:00:35;;;;;;;;;;;14.70;89.00;;;;;;4249191;27;19927;-39
2020/12/14 02:02:56;;;;;;;;;;;14.60;89.00;;;;;;4248168;27;19927;-39
2020/12/14 02:05:16;;;;;;;;;;;14.60;89.00;;;;;;4249081;27;20019;-39
2020/12/14 02:07:37;;;;;;;;;;;14.60;89.10;;;;;;4249067;27;20373;-39
2020/12/14 02:09:58;;;;;;;;;;;14.60;89.10;;;;;;4249706;27;20330;-39
2020/12/14 02:12:21;;;;;;;;;;;14.60;89.20;;;;;;4249279;27;19933;-39
2020/12/14 02:14:43;;;;;;;;;;;14.60;90.00;;;;;;4248861;27;19927;-39
2020/12/14 02:17:04;;;;;;;;;;;14.60;89.20;;;;;;4249109;27;20385;-39
2020/12/14 02:19:25;;;;;;;;;;;14.60;89.20;;;;;;4249036;27;19927;-38
2020/12/14 02:21:48;;;;;;;;;;;14.60;89.20;;;;;;4249248;27;19971;-38
2020/12/14 02:24:16;;;;;;;;;;;14.60;89.30;;;;;;4248974;27;19927;-39
2020/12/14 02:26:37;;;;;;;;;;;14.50;89.20;;;;;;4249460;27;20012;-39
2020/12/14 02:28:57;;;;;;;;;;;14.60;89.40;;;;;;4248870;27;20362;-38
2020/12/14 02:31:18;;;;;;;;;;;14.50;89.40;;;;;;4247717;27;19927;-39
2020/12/14 02:33:39;;;;;;;;;;;14.50;89.40;;;;;;4248816;27;20361;-39
2020/12/14 02:36:00;;;;;;;;;;;14.60;89.50;;;;;;4248479;27;19927;-39
2020/12/14 02:38:21;;;;;;;;;;;14.50;89.40;;;;;;4248369;27;20022;-39
2020/12/14 02:40:42;;;;;;;;;;;14.50;89.40;;;;;;4249145;27;19927;-39
2020/12/14 02:43:03;;;;;;;;;;;14.50;89.40;;;;;;4249010;27;20448;-39
2020/12/14 02:45:23;;;;;;;;;;;14.50;89.50;;;;;;4249154;27;19989;-40
2020/12/14 02:47:44;;;;;;;;;;;14.50;89.20;;;;;;4248846;27;19924;-40
2020/12/14 02:50:05;;;;;;;;;;;14.60;89.10;;;;;;4248319;27;20397;-47
2020/12/14 02:52:26;;;;;;;;;;;14.80;88.30;;;;;;4248375;27;19984;-39
2020/12/14 02:54:46;;;;;;;;;;;14.90;87.50;;;;;;4248925;27;19972;-39
2020/12/14 02:57:08;;;;;;;;;;;15.00;87.00;;;;;;4248312;27;19927;-39
2020/12/14 02:59:29;;;;;;;;;;;15.10;86.70;;;;;;4248545;27;19946;-39
2020/12/14 03:01:52;;;;;;;;;;;15.10;86.40;;;;;;4248484;27;19923;-39
2020/12/14 03:04:13;;;;;;;;;;;15.20;86.20;;;;;;4247652;27;19958;-39
2020/12/14 03:06:34;;;;;;;;;;;15.10;86.00;;;;;;4248052;27;19931;-39
2020/12/14 03:08:54;;;;;;;;;;;15.20;86.20;;;;;;4248556;27;19931;-39
2020/12/14 03:11:15;;;;;;;;;;;15.10;86.10;;;;;;4248271;27;19927;-39
2020/12/14 03:13:37;;;;;;;;;;;15.10;86.10;;;;;;4247845;27;20377;-39
2020/12/14 03:15:57;;;;;;;;;;;15.10;86.10;;;;;;4248019;27;20465;-39
2020/12/14 03:18:18;;;;;;;;;;;15.10;86.30;;;;;;4248304;27;20013;-39
2020/12/14 03:20:39;;;;;;;;;;;15.10;86.30;;;;;;4247842;27;20021;-39
2020/12/14 03:23:02;;;;;;;;;;;15.10;86.30;;;;;;4248066;27;19928;-39
2020/12/14 03:25:23;;;;;;;;;;;15.00;86.40;;;;;;4248394;27;19935;-39
2020/12/14 03:27:44;;;;;;;;;;;15.00;86.50;;;;;;4248136;27;19927;-39
2020/12/14 03:30:06;;;;;;;;;;;15.00;86.60;;;;;;4247783;27;19977;-38
2020/12/14 03:32:29;;;;;;;;;;;15.10;86.40;;;;;;4247438;27;19934;-39
2020/12/14 03:34:53;;;;;;;;;;;15.20;85.80;;;;;;4247767;27;19924;-39
2020/12/14 03:37:14;;;;;;;;;;;15.30;85.30;;;;;;4247851;27;19934;-39
2020/12/14 03:39:34;;;;;;;;;;;15.30;84.80;;;;;;4247912;27;20385;-39
2020/12/14 03:41:55;;;;;;;;;;;15.40;84.80;;;;;;4248126;27;19928;-39
2020/12/14 03:44:16;;;;;;;;;;;15.40;84.70;;;;;;4248056;27;19930;-39
2020/12/14 03:46:38;;;;;;;;;;;15.40;84.60;;;;;;4247525;27;19935;-39
2020/12/14 03:48:58;;;;;;;;;;;15.40;84.60;;;;;;4247535;27;20383;-39
2020/12/14 03:51:21;;;;;;;;;;;15.40;84.60;;;;;;4247138;27;19958;-39
2020/12/14 03:53:43;;;;;;;;;;;15.40;84.60;;;;;;4247443;27;19924;-39
2020/12/14 03:56:07;;;;;;;;;;;15.40;84.40;;;;;;4247600;27;20018;-39
2020/12/14 03:58:27;;;;;;;;;;;15.40;84.20;;;;;;4247714;27;19931;-39
2020/12/14 04:00:48;;;;;;;;;;;15.40;84.10;;;;;;4247602;27;20424;-39
2020/12/14 04:03:10;;;;;;;;;;;15.40;84.10;;;;;;4247652;27;20684;-39
2020/12/14 04:05:31;;;;;;;;;;;15.40;84.10;;;;;;4247547;27;19942;-39
2020/12/14 04:07:52;;;;;;;;;;;15.40;84.10;;;;;;4247613;27;20385;-39
2020/12/14 04:10:13;;;;;;;;;;;15.40;84.30;;;;;;4247282;27;19924;-38
2020/12/14 04:12:33;;;;;;;;;;;15.40;84.20;;;;;;4246961;27;20381;-39
2020/12/14 04:14:54;;;;;;;;;;;15.40;84.40;;;;;;4246986;27;19935;-39
2020/12/14 04:17:15;;;;;;;;;;;15.30;84.50;;;;;;4247035;27;20033;-39
2020/12/14 04:19:36;;;;;;;;;;;15.40;84.50;;;;;;4246618;27;19950;-40
2020/12/14 04:21:59;;;;;;;;;;;15.40;84.00;;;;;;4246907;27;20476;-39
2020/12/14 04:24:20;;;;;;;;;;;15.50;84.10;;;;;;4246969;27;20354;-39
2020/12/14 04:26:40;;;;;;;;;;;15.60;83.40;;;;;;4246872;27;20084;-39
2020/12/14 04:29:01;;;;;;;;;;;15.60;83.30;;;;;;4246882;27;20039;-39
2020/12/14 04:31:22;;;;;;;;;;;15.60;83.30;;;;;;4246652;27;19923;-39
2020/12/14 04:33:42;;;;;;;;;;;15.60;83.30;;;;;;4247400;27;19931;-39
2020/12/14 04:36:05;;;;;;;;;;;15.50;84.10;;;;;;4247166;27;19927;-39
2020/12/14 04:38:25;;;;;;;;;;;15.50;83.50;;;;;;4247252;27;20465;-46
2020/12/14 04:40:46;;;;;;;;;;;15.40;83.60;;;;;;4247302;27;19923;-40
2020/12/14 04:43:08;;;;;;;;;;;15.40;83.80;;;;;;4246997;27;19931;-39
2020/12/14 04:45:29;;;;;;;;;;;15.40;83.90;;;;;;4246650;27;20034;-39
2020/12/14 04:47:50;;;;;;;;;;;15.40;83.80;;;;;;4246401;27;20369;-39
2020/12/14 04:50:11;;;;;;;;;;;15.40;83.80;;;;;;4246286;27;19927;-39
2020/12/14 04:52:33;;;;;;;;;;;15.40;83.90;;;;;;4246400;27;19950;-38
2020/12/14 04:54:56;;;;;;;;;;;15.40;83.80;;;;;;4246497;27;19963;-39
2020/12/14 04:57:19;;;;;;;;;;;15.40;84.00;;;;;;4246701;27;20016;-39
2020/12/14 04:59:40;;;;;;;;;;;15.30;84.00;;;;;;4246874;27;19930;-39
2020/12/14 05:02:05;;;;;;;;;;;15.30;84.20;;;;;;4247083;27;19968;-39
2020/12/14 05:04:26;;;;;;;;;;;15.30;84.50;;;;;;4232047;28;19981;-39
2020/12/14 05:06:50;;;;;;;;;;;15.30;84.20;;;;;;4246598;28;19949;-39
2020/12/14 05:09:16;;;;;;;;;;;15.60;83.30;;;;;;4246547;28;20537;-39
2020/12/14 05:11:37;;;;;;;;;;;15.80;82.20;;;;;;4246203;28;20012;-39
2020/12/14 05:14:10;;;;;;;;;;;15.90;81.40;;;;;;4246647;28;19980;-39
2020/12/14 05:16:33;;;;;;;;;;;16.00;80.90;;;;;;4246671;28;19976;-39
2020/12/14 05:18:54;;;;;;;;;;;16.00;80.80;;;;;;4246353;28;19943;-39
2020/12/14 05:21:15;;;;;;;;;;;15.90;80.90;;;;;;4246334;27;20398;-39
2020/12/14 05:23:36;;;;;;;;;;;15.90;81.10;;;;;;4246151;28;20297;-39
2020/12/14 05:26:04;;;;;;;;;;;15.80;81.20;;;;;;4247860;27;20028;-39
2020/12/14 05:28:24;;;;;;;;;;;15.80;81.50;;;;;;4249756;27;20021;-39
2020/12/14 05:30:46;;;;;;;;;;;15.80;81.60;;;;;;4250292;27;19928;-39
2020/12/14 05:33:07;;;;;;;;;;;15.80;81.80;;;;;;4249415;27;20384;-39
2020/12/14 05:35:36;;;;;;;;;;;15.70;81.90;;;;;;4249388;27;19969;-39
2020/12/14 05:38:08;;;;;;;;;;;15.70;82.10;;;;;;4249988;27;20346;-39
2020/12/14 05:40:32;;;;;;;;;;;15.60;83.10;;;;;;4249391;27;19927;-39
2020/12/14 05:42:54;;;;;;;;;;;15.60;82.40;;;;;;4249754;27;19928;-39
2020/12/14 05:45:15;;;;;;;;;;;15.50;82.70;;;;;;4249657;27;19927;-39
2020/12/14 05:47:36;;;;;;;;;;;15.60;82.50;;;;;;4249817;27;20026;-39
2020/12/14 05:49:57;;;;;;;;;;;15.80;81.80;;;;;;4249341;27;20343;-39
2020/12/14 05:52:19;;;;;;;;;;;16.00;80.90;;;;;;4249885;27;19929;-39
2020/12/14 05:54:44;;;;;;;;;;;16.10;80.30;;;;;;4249208;27;20323;-39
2020/12/14 05:57:04;;;;;;;;;;;16.10;79.90;;;;;;4249389;27;19931;-39
2020/12/14 05:59:26;;;;;;;;;;;16.10;79.80;;;;;;4249365;27;20470;-39
2020/12/14 06:01:48;;;;;;;;;;;16.10;79.90;;;;;;4250022;27;20412;-39
2020/12/14 06:04:10;;;;;;;;;;;16.10;80.10;;;;;;4248932;27;19967;-39
2020/12/14 06:06:37;;;;;;;;;;;16.00;80.20;;;;;;4249549;27;20034;-39
2020/12/14 06:09:05;;;;;;;;;;;16.10;79.90;;;;;;4249304;27;19931;-38
2020/12/14 06:11:26;;;;;;;;;;;16.30;79.30;;;;;;4248995;27;19927;-39
2020/12/14 06:13:47;;;;;;;;;;;16.40;78.60;;;;;;4248536;27;20378;-39
2020/12/14 06:16:10;;;;;;;;;;;16.40;78.30;;;;;;4249498;27;19937;-39
2020/12/14 06:18:32;;;;;;;;;;;16.40;78.10;;;;;;4249303;27;19923;-39
2020/12/14 06:20:53;;;;;;;;;;;16.40;78.10;;;;;;4231896;28;20282;-39
2020/12/14 06:23:15;;;;;;;;;;;16.40;78.20;;;;;;4231850;28;20439;-39
2020/12/14 06:25:36;;;;;;;;;;;16.30;78.50;;;;;;4232180;28;19924;-39
2020/12/14 06:27:56;;;;;;;;;;;16.20;78.70;;;;;;4232389;28;19928;-39
2020/12/14 06:30:30;;;;;;;;;;;16.20;79.10;;;;;;4231893;28;20490;-39
2020/12/14 06:32:57;;;;;;;;;;;16.20;78.90;;;;;;4231799;28;19928;-39
2020/12/14 06:35:38;;;;;;;;;;;16.30;78.80;;;;;;4231809;28;19928;-40
2020/12/14 06:37:59;;;;;;;;;;;16.30;78.60;;;;;;4246121;27;20518;-40
2020/12/14 06:40:22;;;;;;;;;;;16.40;78.10;;;;;;4248862;27;20266;-39
2020/12/14 06:42:43;;;;;;;;;;;16.60;77.70;;;;;;4230659;28;19962;-38
2020/12/14 06:45:10;;;;;;;;;;;16.70;76.70;;;;;;4231805;28;19932;-38
2020/12/14 06:47:39;;;;;;;;;;;16.80;76.30;;;;;;4231638;28;19924;-39
2020/12/14 06:50:21;;;;;;;;;;;16.80;76.00;;;;;;4248246;27;20300;-39
2020/12/14 06:52:42;;;;;;;;;;;16.80;76.10;;;;;;4248770;27;19923;-39
2020/12/14 06:55:03;;;;;;;;;;;16.70;76.20;;;;;;4248986;27;19931;-39
2020/12/14 06:57:36;;;;;;;;;;;16.60;76.60;;;;;;4248244;27;19931;-39
2020/12/14 06:59:57;;;;;;;;;;;16.50;77.20;;;;;;4248340;27;20635;-39
2020/12/14 07:02:18;;;;;;;;;;;16.40;77.70;;;;;;4248713;27;20404;-39
2020/12/14 07:04:40;;;;;;;;;;;16.30;78.30;;;;;;4248149;27;19927;-39
2020/12/14 07:07:16;;;;;;;;;;;16.30;79.60;;;;;;4248206;27;19927;-39
2020/12/14 07:09:39;;;;;;;;;;;16.40;80.30;;;;;;4247442;27;19931;-40
2020/12/14 07:12:17;;;;;;;;;;;16.50;79.90;;;;;;4248148;27;19927;-39
2020/12/14 07:14:44;;;;;;;;;;;16.50;79.30;;;;;;4247896;27;19924;-39
2020/12/14 07:17:08;;;;;;;;;;;16.50;79.10;;;;;;4249847;27;19956;-39
2020/12/14 07:19:35;;;;;;;;;;;16.50;79.10;;;;;;4237833;27;19942;-39
2020/12/14 07:21:57;;;;;;;;;;;16.40;79.20;;;;;;4247911;27;20026;-39
2020/12/14 07:24:18;;;;;;;;;;;16.40;79.50;;;;;;4248025;27;19927;-39
2020/12/14 07:26:39;;;;;;;;;;;16.40;79.50;;;;;;4248403;27;20301;-39
2020/12/14 07:29:00;;;;;;;;;;;16.50;79.10;;;;;;4247911;27;20300;-39
2020/12/14 07:31:23;;;;;;;;;;;16.60;78.40;;;;;;4247529;27;19927;-39
2020/12/14 07:33:51;;;;;;;;;;;16.60;77.90;;;;;;4247650;27;19927;-39
2020/12/14 07:36:12;;;;;;;;;;;16.70;77.70;;;;;;4246992;27;19962;-39
2020/12/14 07:38:33;;;;;;;;;;;16.70;77.50;;;;;;4247743;27;19928;-39
2020/12/14 07:41:05;;;;;;;;;;;16.70;77.50;;;;;;4247347;27;20611;-39
2020/12/14 07:43:27;;;;;;;;;;;16.70;77.50;;;;;;4238893;27;20436;-39
2020/12/14 07:45:48;;;;;;;;;;;16.60;77.70;;;;;;4247753;27;20064;-39
2020/12/14 07:48:09;;;;;;;;;;;16.60;78.00;;;;;;4260741;27;19927;-39
2020/12/14 07:50:29;;;;;;;;;;;16.50;78.30;;;;;;4264880;27;19923;-39
2020/12/14 07:52:53;;;;;;;;;;;16.40;78.70;;;;;;4264814;27;20278;-39
2020/12/14 07:55:17;;;;;;;;;;;16.50;78.80;;;;;;4264494;27;19927;-39
2020/12/14 07:57:39;;;;;;;;;;;16.50;78.80;;;;;;4264695;27;19933;-39
2020/12/14 08:00:02;;;;;;;;;;;16.50;78.70;;;;;;4252424;27;19924;-39
2020/12/14 08:02:32;;;;;;;;;;;16.50;78.70;;;;;;4247545;27;20295;-39
2020/12/14 08:04:59;;;;;;;;;;;16.50;79.00;;;;;;4247112;27;19927;-39
2020/12/14 08:07:20;;;;;;;;;;;16.40;79.10;;;;;;4247330;27;19950;-39
2020/12/14 08:09:44;;;;;;;;;;;16.40;79.30;;;;;;4247503;27;19927;-39
2020/12/14 08:12:06;;;;;;;;;;;16.40;79.30;;;;;;4247444;27;19927;-39
2020/12/14 08:14:27;;;;;;;;;;;16.40;79.20;;;;;;4247342;27;19927;-39
2020/12/14 08:16:49;;;;;;;;;;;16.50;79.00;;;;;;4247360;27;19949;-39
2020/12/14 08:19:17;;;;;;;;;;;16.60;78.60;;;;;;4247441;27;20378;-39
2020/12/14 08:21:40;;;;;;;;;;;16.60;78.30;;;;;;4247230;27;20327;-39
2020/12/14 08:24:08;;;;;;;;;;;16.60;78.20;;;;;;4247156;27;19927;-39
2020/12/14 08:26:30;;;;;;;;;;;16.70;78.00;;;;;;4247072;27;19988;-40
2020/12/14 08:28:56;;;;;;;;;;;16.60;78.20;;;;;;4246973;27;19951;-40
2020/12/14 08:31:17;;;;;;;;;;;16.60;78.50;;;;;;4247134;27;19967;-40
2020/12/14 08:33:52;;;;;;;;;;;16.50;78.70;;;;;;4247162;27;19962;-39
2020/12/14 08:36:13;;;;;;;;;;;16.60;78.60;;;;;;4255461;27;19927;-39
2020/12/14 08:38:34;;;;;;;;;;;16.60;78.20;;;;;;4264161;27;20377;-39
2020/12/14 08:40:56;;;;;;;;;;;16.60;78.10;;;;;;4263993;27;20027;-39
2020/12/14 08:43:17;;;;;;;;;;;16.60;78.10;;;;;;4263869;27;19945;-39
2020/12/14 08:45:39;;;;;;;;;;;16.60;78.30;;;;;;4263941;27;20388;-39
2020/12/14 08:48:00;;;;;;;;;;;16.60;78.50;;;;;;4263885;27;19949;-39
2020/12/14 08:50:22;;;;;;;;;;;16.50;78.70;;;;;;4263910;27;19927;-39
2020/12/14 08:52:43;;;;;;;;;;;16.50;79.00;;;;;;4263661;27;19978;-39
2020/12/14 08:55:03;;;;;;;;;;;16.50;78.70;;;;;;4262837;27;19927;-39
2020/12/14 08:57:25;;;;;;;;;;;16.50;78.60;;;;;;4263786;27;19968;-39
2020/12/14 08:59:45;;;;;;;;;;;16.50;78.60;;;;;;4263730;27;19923;-39
2020/12/14 09:02:08;;;;;;;;;;;16.50;78.80;;;;;;4263646;27;19923;-39
2020/12/14 09:04:30;;;;;;;;;;;16.40;79.00;;;;;;4263502;27;20381;-39
2020/12/14 09:06:51;;;;;;;;;;;16.40;79.30;;;;;;4263683;27;20347;-38
2020/12/14 09:09:12;;;;;;;;;;;16.50;78.80;;;;;;4263758;27;19975;-39
2020/12/14 09:11:34;;;;;;;;;;;16.70;78.20;;;;;;4263705;27;19927;-39
2020/12/14 09:13:55;;;;;;;;;;;16.70;77.50;;;;;;4263753;27;19938;-38
2020/12/14 09:16:17;;;;;;;;;;;16.80;77.40;;;;;;4263677;27;19958;-38
2020/12/14 09:18:42;;;;;;;;;;;16.80;78.20;;;;;;4263757;27;19927;-38
2020/12/14 09:21:03;;;;;;;;;;;16.80;77.50;;;;;;4263620;27;20396;-38
2020/12/14 09:23:27;;;;;;;;;;;16.60;77.70;;;;;;4263804;27;20384;-38
2020/12/14 09:25:48;;;;;;;;;;;16.60;78.10;;;;;;4263497;27;19926;-39
2020/12/14 09:28:09;;;;;;;;;;;16.50;78.30;;;;;;4263762;27;19933;-38
2020/12/14 09:30:29;;;;;;;;;;;16.40;78.60;;;;;;4263543;27;20705;-38
2020/12/14 09:32:50;;;;;;;;;;;16.30;79.10;;;;;;4263588;27;19923;-38
2020/12/14 09:35:11;;;;;;;;;;;16.30;79.40;;;;;;4263495;27;19923;-38
2020/12/14 09:37:32;;;;;;;;;;;16.30;79.60;;;;;;4229395;28;19935;-38
2020/12/14 09:39:54;;;;;;;;;;;16.30;79.30;;;;;;4229163;28;19981;-39
2020/12/14 09:42:15;;;;;;;;;;;16.40;79.00;;;;;;4229206;28;19924;-38
2020/12/14 09:44:36;;;;;;;;;;;16.40;79.00;;;;;;4229242;28;19935;-38
2020/12/14 09:46:58;;;;;;;;;;;16.40;79.00;;;;;;4229061;28;19928;-38
2020/12/14 09:49:19;;;;;;;;;;;16.30;79.00;;;;;;4229350;28;19931;-38
2020/12/14 09:51:40;;;;;;;;;;;16.30;79.20;;;;;;4229213;28;19930;-39
2020/12/14 09:54:01;;;;;;;;;;;16.30;79.40;;;;;;4229276;28;19980;-39
2020/12/14 09:56:22;;;;;;;;;;;16.30;79.40;;;;;;4240459;28;20412;-39
2020/12/14 09:58:43;;;;;;;;;;;16.40;78.90;;;;;;4246042;28;19928;-38
2020/12/14 10:01:04;;;;;;;;;;;16.50;78.10;;;;;;4246215;28;19927;-42
2020/12/14 10:03:24;;;;;;;;;;;16.60;77.80;;;;;;4244936;28;19923;-39
2020/12/14 10:05:47;;;;;;;;;;;16.60;77.70;;;;;;4246123;28;19934;-39
2020/12/14 10:08:09;;;;;;;;;;;16.60;77.50;;;;;;4246228;28;20329;-39
2020/12/14 10:10:29;;;;;;;;;;;16.60;77.20;;;;;;4242046;27;20296;-39
2020/12/14 10:12:58;;;;;;;;;;;16.60;77.20;;;;;;4245019;27;20011;-39
2020/12/14 10:15:19;;;;;;;;;;;16.60;77.40;;;;;;4248168;27;20416;-38
2020/12/14 10:17:39;;;;;;;;;;;16.60;78.40;;;;;;4248830;27;20018;-39
2020/12/14 10:20:02;;;;;;;;;;;16.60;78.90;;;;;;4248844;27;20347;-39
2020/12/14 10:22:23;;;;;;;;;;;16.50;78.80;;;;;;4249200;27;19927;-39
2020/12/14 10:24:43;;;;;;;;;;;16.50;78.40;;;;;;4249507;27;20330;-39
2020/12/14 10:27:05;;;;;;;;;;;16.60;78.00;;;;;;4246943;27;20397;-38
2020/12/14 10:29:27;;;;;;;;;;;16.60;77.60;;;;;;4248373;27;20437;-39
2020/12/14 10:31:48;;;;;;;;;;;16.60;77.40;;;;;;4248285;27;19947;-39
2020/12/14 10:34:09;;;;;;;;;;;16.60;77.30;;;;;;4248338;27;19924;-39
2020/12/14 10:36:30;;;;;;;;;;;16.60;77.40;;;;;;4246491;27;19932;-39
2020/12/14 10:38:53;;;;;;;;;;;16.50;77.50;;;;;;4249161;27;20394;-39
2020/12/14 10:41:17;;;;;;;;;;;16.40;77.70;;;;;;4248613;27;19934;-38
2020/12/14 10:43:38;;;;;;;;;;;16.40;78.10;;;;;;4247572;27;20409;-38
2020/12/14 10:45:59;;;;;;;;;;;16.30;78.50;;;;;;4248526;27;19927;-38
2020/12/14 10:48:20;;;;;;;;;;;16.20;78.70;;;;;;4248348;27;19956;-39
2020/12/14 10:50:41;;;;;;;;;;;16.10;78.90;;;;;;4248432;27;20377;-39
2020/12/14 10:53:02;;;;;;;;;;;16.10;79.30;;;;;;4248541;27;19976;-38
2020/12/14 10:55:24;;;;;;;;;;;16.30;78.70;;;;;;4248986;27;20338;-38
2020/12/14 10:57:45;;;;;;;;;;;16.40;78.10;;;;;;4247775;27;20417;-39
2020/12/14 11:00:07;;;;;;;;;;;16.50;77.60;;;;;;4248903;27;19934;-38
2020/12/14 11:02:28;;;;;;;;;;;16.50;77.40;;;;;;4248804;27;20513;-38
2020/12/14 11:04:50;;;;;;;;;;;16.50;77.50;;;;;;4243598;27;20369;-39
2020/12/14 11:07:11;;;;;;;;;;;16.50;77.60;;;;;;4248008;27;19927;-39
2020/12/14 11:09:32;;;;;;;;;;;16.50;77.60;;;;;;4247713;27;19927;-39
2020/12/14 11:11:53;;;;;;;;;;;16.40;77.80;;;;;;4247896;27;19934;-39
2020/12/14 11:14:13;;;;;;;;;;;16.30;78.10;;;;;;4248244;27;20300;-39
2020/12/14 11:16:38;;;;;;;;;;;16.30;78.60;;;;;;4248155;27;19927;-38
2020/12/14 11:19:00;;;;;;;;;;;16.20;78.70;;;;;;4248068;27;19923;-39
2020/12/14 11:21:21;;;;;;;;;;;16.10;79.10;;;;;;4248499;27;19927;-39
2020/12/14 11:23:42;;;;;;;;;;;16.10;79.40;;;;;;4246854;27;19927;-38
2020/12/14 11:26:06;;;;;;;;;;;16.00;79.70;;;;;;4247283;27;20398;-38
2020/12/14 11:28:27;;;;;;;;;;;16.00;80.00;;;;;;4237956;27;20435;-38
2020/12/14 11:30:47;;;;;;;;;;;15.90;80.30;;;;;;4237394;27;19923;-39
2020/12/14 11:33:08;;;;;;;;;;;15.80;80.50;;;;;;4248372;27;19930;-39
2020/12/14 11:35:29;;;;;;;;;;;15.80;80.70;;;;;;4248297;27;19935;-38
2020/12/14 11:37:50;;;;;;;;;;;15.80;81.40;;;;;;4248251;27;20473;-39
2020/12/14 11:40:12;;;;;;;;;;;15.70;82.00;;;;;;4248204;27;19935;-39
2020/12/14 11:42:33;;;;;;;;;;;15.70;82.30;;;;;;4248371;27;19927;-39
2020/12/14 11:44:54;;;;;;;;;;;15.70;82.30;;;;;;4244199;27;19923;-39
2020/12/14 11:47:15;;;;;;;;;;;15.60;82.50;;;;;;4247010;27;19927;-38
2020/12/14 11:49:35;;;;;;;;;;;15.60;82.50;;;;;;4247441;27;19938;-39
2020/12/14 11:51:57;;;;;;;;;;;15.60;82.70;;;;;;4247395;27;19939;-39
2020/12/14 11:54:18;;;;;;;;;;;15.50;82.90;;;;;;4247779;27;19923;-39
2020/12/14 11:56:38;;;;;;;;;;;15.50;83.00;;;;;;4247629;27;19966;-39
2020/12/14 11:58:59;;;;;;;;;;;15.70;82.10;;;;;;4247554;27;20373;-39
2020/12/14 12:01:20;;;;;;;;;;;15.90;81.20;;;;;;4247529;27;20016;-38
2020/12/14 12:03:41;;;;;;;;;;;16.10;80.40;;;;;;4247484;27;19927;-39
2020/12/14 12:06:02;;;;;;;;;;;16.20;79.80;;;;;;4247607;27;19934;-39
2020/12/14 12:08:23;;;;;;;;;;;16.30;79.40;;;;;;4247503;27;19931;-38
2020/12/14 12:10:44;;;;;;;;;;;16.40;78.80;;;;;;4247589;27;19927;-39
2020/12/14 12:13:05;;;;;;;;;;;16.50;78.40;;;;;;4247545;27;19935;-38
2020/12/14 12:15:29;;;;;;;;;;;16.50;78.20;;;;;;4246391;27;19934;-39
2020/12/14 12:17:50;;;;;;;;;;;16.60;77.90;;;;;;4247096;27;20381;-39
2020/12/14 12:20:10;;;;;;;;;;;16.60;77.60;;;;;;4247286;27;20015;-38
2020/12/14 12:22:31;;;;;;;;;;;16.60;77.50;;;;;;4247545;27;20393;-38
2020/12/14 12:24:53;;;;;;;;;;;16.60;77.60;;;;;;4247293;27;19927;-39
2020/12/14 12:27:14;;;;;;;;;;;16.60;77.80;;;;;;4247142;27;19971;-39
2020/12/14 12:29:35;;;;;;;;;;;16.60;77.40;;;;;;4247148;27;20403;-38
2020/12/14 12:31:58;;;;;;;;;;;16.80;76.80;;;;;;4247177;27;20086;-39
2020/12/14 12:34:23;;;;;;;;;;;16.90;76.20;;;;;;4246773;27;19927;-39
2020/12/14 12:36:48;;;;;;;;;;;16.90;76.00;;;;;;4247271;27;19927;-39
2020/12/14 12:39:09;;;;;;;;;;;16.90;75.90;;;;;;4247135;27;19966;-38
2020/12/14 12:41:30;;;;;;;;;;;16.90;76.00;;;;;;4247036;27;19927;-39
2020/12/14 12:43:53;;;;;;;;;;;16.90;76.00;;;;;;4247028;27;19927;-42
2020/12/14 12:46:14;;;;;;;;;;;17.00;75.70;;;;;;4246896;27;19927;-39
2020/12/14 12:48:35;;;;;;;;;;;17.00;75.60;;;;;;4246655;27;19927;-38
2020/12/14 12:50:56;;;;;;;;;;;17.00;75.80;;;;;;4234849;27;19966;-38
2020/12/14 12:53:17;;;;;;;;;;;16.90;76.00;;;;;;4246753;27;20297;-39
2020/12/14 12:55:38;;;;;;;;;;;16.90;76.30;;;;;;4246907;27;20301;-39
2020/12/14 12:58:00;;;;;;;;;;;16.90;76.20;;;;;;4246896;27;20331;-39
2020/12/14 13:00:20;;;;;;;;;;;16.90;76.20;;;;;;4246863;27;19928;-46
2020/12/14 13:02:41;;;;;;;;;;;16.80;76.40;;;;;;4246765;27;19934;-39
2020/12/14 13:05:03;;;;;;;;;;;16.90;76.60;;;;;;4246640;27;19930;-39
2020/12/14 13:07:24;;;;;;;;;;;16.90;76.50;;;;;;4246392;27;19959;-39
2020/12/14 13:09:45;;;;;;;;;;;16.90;76.50;;;;;;4246787;28;20022;-39
2020/12/14 13:12:06;;;;;;;;;;;16.80;76.50;;;;;;4246733;28;19938;-39
2020/12/14 13:14:27;;;;;;;;;;;16.80;76.80;;;;;;4246868;28;19931;-39
2020/12/14 13:16:48;;;;;;;;;;;16.70;77.00;;;;;;4246659;28;20626;-39
2020/12/14 13:19:09;;;;;;;;;;;16.70;77.30;;;;;;4246666;28;19931;-39
2020/12/14 13:21:31;;;;;;;;;;;16.60;77.50;;;;;;4246877;28;19931;-39
2020/12/14 13:23:54;;;;;;;;;;;16.70;77.40;;;;;;4246592;28;19924;-39
2020/12/14 13:26:15;;;;;;;;;;;16.80;76.80;;;;;;4246569;27;20403;-39
2020/12/14 13:28:36;;;;;;;;;;;17.00;76.20;;;;;;4246293;28;19959;-38
2020/12/14 13:30:58;;;;;;;;;;;17.10;76.00;;;;;;4246622;28;20018;-39
2020/12/14 13:33:19;;;;;;;;;;;17.10;75.80;;;;;;4246627;28;19927;-39
2020/12/14 13:35:40;;;;;;;;;;;17.00;75.90;;;;;;4246513;27;20042;-39
2020/12/14 13:38:01;;;;;;;;;;;17.00;76.10;;;;;;4246581;28;20022;-39
2020/12/14 13:40:22;;;;;;;;;;;16.90;76.30;;;;;;4246372;27;19972;-39
2020/12/14 13:42:43;;;;;;;;;;;16.80;76.50;;;;;;4246395;28;19967;-39
2020/12/14 13:45:04;;;;;;;;;;;16.80;77.00;;;;;;4246424;28;20385;-39